sensor_id;sensor_type;location;lat;lon;timestamp;pressure;altitude;pressure_sealevel;temperature;humidity
58622;BME280;44389;51.578;5.456;2023-03-24T00:02:16;99751.78;;;10.58;100.00
58622;BME280;44389;51.578;5.456;2023-03-24T00:04:42;99756.94;;;10.58;100.00
58622;BME280;44389;51.578;5.456;2023-03-24T00:07:08;99744.06;;;10.58;100.00
58622;BME280;44389;51.578;5.456;2023-03-24T00:09:38;99738.03;;;10.59;100.00
58622;BME280;44389;51.578;5.456;2023-03-24T00:12:04;99721.72;;;10.60;100.00
58622;BME280;44389;51.578;5.456;2023-03-24T00:14:29;99719.22;;;10.63;100.00
58622;BME280;44389;51.578;5.456;2023-03-24T00:16:54;99714.06;;;10.63;100.00
58622;BME280;44389;51.578;5.456;2023-03-24T00:19:22;99726.97;;;10.69;100.00
58622;BME280;44389;51.578;5.456;2023-03-24T00:21:48;99721.88;;;10.72;100.00
58622;BME280;44389;51.578;5.456;2023-03-24T00:24:13;99722.75;;;10.74;100.00
58622;BME280;44389;51.578;5.456;2023-03-24T00:26:39;99723.63;;;10.76;100.00
58622;BME280;44389;51.578;5.456;2023-03-24T00:29:09;99714.31;;;10.87;100.00
58622;BME280;44389;51.578;5.456;2023-03-24T00:31:36;99725.53;;;10.93;100.00
58622;BME280;44389;51.578;5.456;2023-03-24T00:34:05;99722.13;;;10.97;100.00
58622;BME280;44389;51.578;5.456;2023-03-24T00:36:31;99717.00;;;11.00;100.00
58622;BME280;44389;51.578;5.456;2023-03-24T00:38:56;99705.84;;;11.01;100.00
58622;BME280;44389;51.578;5.456;2023-03-24T00:41:22;99705.88;;;11.06;100.00
58622;BME280;44389;51.578;5.456;2023-03-24T00:43:53;99711.06;;;11.09;100.00
58622;BME280;44389;51.578;5.456;2023-03-24T00:46:19;99702.50;;;11.11;100.00
58622;BME280;44389;51.578;5.456;2023-03-24T00:49:04;99696.50;;;11.12;100.00
58622;BME280;44389;51.578;5.456;2023-03-24T00:51:33;99699.97;;;11.17;100.00
58622;BME280;44389;51.578;5.456;2023-03-24T00:54:00;99685.38;;;11.19;100.00
58622;BME280;44389;51.578;5.456;2023-03-24T00:56:27;99688.00;;;11.26;100.00
58622;BME280;44389;51.578;5.456;2023-03-24T00:58:54;99682.03;;;11.30;100.00
58622;BME280;44389;51.578;5.456;2023-03-24T01:01:23;99657.13;;;11.35;100.00
58622;BME280;44389;51.578;5.456;2023-03-24T01:03:48;99670.88;;;11.35;100.00
58622;BME280;44389;51.578;5.456;2023-03-24T01:06:15;99657.13;;;11.35;100.00
58622;BME280;44389;51.578;5.456;2023-03-24T01:08:42;99668.31;;;11.34;100.00
58622;BME280;44389;51.578;5.456;2023-03-24T01:11:07;99660.56;;;11.32;100.00
58622;BME280;44389;51.578;5.456;2023-03-24T01:13:33;99662.25;;;11.32;100.00
58622;BME280;44389;51.578;5.456;2023-03-24T01:15:59;99661.41;;;11.30;100.00
58622;BME280;44389;51.578;5.456;2023-03-24T01:18:24;99658.81;;;11.30;100.00
58622;BME280;44389;51.578;5.456;2023-03-24T01:20:50;99660.50;;;11.25;100.00
58622;BME280;44389;51.578;5.456;2023-03-24T01:23:21;99657.03;;;11.21;100.00
58622;BME280;44389;51.578;5.456;2023-03-24T01:25:48;99644.97;;;11.17;100.00
58622;BME280;44389;51.578;5.456;2023-03-24T01:28:16;99644.06;;;11.15;100.00
58622;BME280;44389;51.578;5.456;2023-03-24T01:30:42;99639.75;;;11.12;100.00
58622;BME280;44389;51.578;5.456;2023-03-24T01:33:08;99646.59;;;11.07;100.00
58622;BME280;44389;51.578;5.456;2023-03-24T01:35:34;99631.97;;;11.04;100.00
58622;BME280;44389;51.578;5.456;2023-03-24T01:37:59;99642.25;;;11.01;100.00
58622;BME280;44389;51.578;5.456;2023-03-24T01:40:29;99634.47;;;11.00;100.00
58622;BME280;44389;51.578;5.456;2023-03-24T01:42:56;99638.78;;;10.96;100.00
58622;BME280;44389;51.578;5.456;2023-03-24T01:45:41;99631.88;;;10.95;100.00
58622;BME280;44389;51.578;5.456;2023-03-24T01:51:00;99630.16;;;10.94;100.00
58622;BME280;44389;51.578;5.456;2023-03-24T01:53:27;99633.59;;;10.95;100.00
58622;BME280;44389;51.578;5.456;2023-03-24T01:55:54;99630.16;;;10.94;100.00
58622;BME280;44389;51.578;5.456;2023-03-24T01:58:22;99622.41;;;10.94;100.00
58622;BME280;44389;51.578;5.456;2023-03-24T02:00:49;99621.53;;;10.92;100.00
58622;BME280;44389;51.578;5.456;2023-03-24T02:03:17;99608.63;;;10.91;100.00
58622;BME280;44389;51.578;5.456;2023-03-24T02:05:46;99608.66;;;10.92;100.00
58622;BME280;44389;51.578;5.456;2023-03-24T02:11:02;99610.38;;;10.92;100.00
58622;BME280;44389;51.578;5.456;2023-03-24T02:13:27;99610.38;;;10.92;100.00
58622;BME280;44389;51.578;5.456;2023-03-24T02:18:45;99614.63;;;10.88;100.00
58622;BME280;44389;51.578;5.456;2023-03-24T02:24:21;99606.88;;;10.86;100.00
58622;BME280;44389;51.578;5.456;2023-03-24T02:27:12;99612.88;;;10.84;100.00
58622;BME280;44389;51.578;5.456;2023-03-24T02:30:02;99615.47;;;10.82;100.00
58622;BME280;44389;51.578;5.456;2023-03-24T02:43:18;99610.25;;;10.79;100.00
58622;BME280;44389;51.578;5.456;2023-03-24T02:46:22;99608.56;;;10.78;100.00
58622;BME280;44389;51.578;5.456;2023-03-24T02:51:57;99622.31;;;10.82;100.00
58622;BME280;44389;51.578;5.456;2023-03-24T02:57:03;99628.34;;;10.84;100.00
58622;BME280;44389;51.578;5.456;2023-03-24T02:59:43;99623.19;;;10.84;100.00
58622;BME280;44389;51.578;5.456;2023-03-24T03:02:15;99629.19;;;10.83;100.00
58622;BME280;44389;51.578;5.456;2023-03-24T03:04:50;99632.66;;;10.83;100.00
58622;BME280;44389;51.578;5.456;2023-03-24T03:07:21;99653.28;;;10.83;100.00
58622;BME280;44389;51.578;5.456;2023-03-24T03:09:58;99676.50;;;10.86;100.00
58622;BME280;44389;51.578;5.456;2023-03-24T03:12:26;99674.75;;;10.84;100.00
58622;BME280;44389;51.578;5.456;2023-03-24T03:14:59;99681.56;;;10.79;100.00
58622;BME280;44389;51.578;5.456;2023-03-24T03:17:33;99685.81;;;10.72;100.00
58622;BME280;44389;51.578;5.456;2023-03-24T03:20:03;99686.56;;;10.65;100.00
58622;BME280;44389;51.578;5.456;2023-03-24T03:22:45;99714.00;;;10.58;100.00
58622;BME280;44389;51.578;5.456;2023-03-24T03:25:15;99721.53;;;10.41;100.00
58622;BME280;44389;51.578;5.456;2023-03-24T03:27:43;99705.84;;;10.26;100.00
58622;BME280;44389;51.578;5.456;2023-03-24T03:30:21;99717.63;;;10.08;100.00
58622;BME280;44389;51.578;5.456;2023-03-24T03:32:55;99733.06;;;10.08;100.00
58622;BME280;44389;51.578;5.456;2023-03-24T03:35:45;99738.78;;;9.84;100.00
58622;BME280;44389;51.578;5.456;2023-03-24T03:38:22;99770.22;;;9.66;100.00
58622;BME280;44389;51.578;5.456;2023-03-24T03:40:59;99782.16;;;9.61;100.00
58622;BME280;44389;51.578;5.456;2023-03-24T03:43:27;99792.25;;;9.50;100.00
58622;BME280;44389;51.578;5.456;2023-03-24T03:45:54;99778.41;;;9.43;100.00
58622;BME280;44389;51.578;5.456;2023-03-24T03:48:20;99780.84;;;9.34;100.00
58622;BME280;44389;51.578;5.456;2023-03-24T03:50:46;99791.84;;;9.27;100.00
58622;BME280;44389;51.578;5.456;2023-03-24T03:53:14;99793.44;;;9.20;100.00
58622;BME280;44389;51.578;5.456;2023-03-24T03:55:40;99795.09;;;9.16;100.00
58622;BME280;44389;51.578;5.456;2023-03-24T03:58:06;99798.47;;;9.15;100.00
58622;BME280;44389;51.578;5.456;2023-03-24T04:00:32;99789.00;;;9.11;100.00
58622;BME280;44389;51.578;5.456;2023-03-24T04:08:47;99813.88;;;9.12;100.00
58622;BME280;44389;51.578;5.456;2023-03-24T04:14:19;99842.16;;;9.14;100.00
58622;BME280;44389;51.578;5.456;2023-03-24T04:20:09;99851.63;;;9.16;100.00
58622;BME280;44389;51.578;5.456;2023-03-24T04:23:13;99862.81;;;9.17;100.00
58622;BME280;44389;51.578;5.456;2023-03-24T04:26:20;99872.19;;;9.15;100.00
58622;BME280;44389;51.578;5.456;2023-03-24T04:29:29;99861.78;;;9.10;100.00
58622;BME280;44389;51.578;5.456;2023-03-24T04:31:59;99860.09;;;9.09;100.00
58622;BME280;44389;51.578;5.456;2023-03-24T04:34:31;99868.25;;;8.89;100.00
58622;BME280;44389;51.578;5.456;2023-03-24T04:37:02;99879.19;;;8.79;100.00
58622;BME280;44389;51.578;5.456;2023-03-24T04:39:33;99879.06;;;8.73;100.00
58622;BME280;44389;51.578;5.456;2023-03-24T04:42:05;99886.69;;;8.70;100.00
58622;BME280;44389;51.578;5.456;2023-03-24T04:44:32;99890.16;;;8.72;100.00
58622;BME280;44389;51.578;5.456;2023-03-24T04:46:59;99885.69;;;8.63;100.00
58622;BME280;44389;51.578;5.456;2023-03-24T04:49:26;99888.22;;;8.62;100.00
58622;BME280;44389;51.578;5.456;2023-03-24T04:51:52;99890.00;;;8.64;100.00
58622;BME280;44389;51.578;5.456;2023-03-24T04:54:21;99890.75;;;8.60;100.00
58622;BME280;44389;51.578;5.456;2023-03-24T04:56:54;99888.16;;;8.59;100.00
58622;BME280;44389;51.578;5.456;2023-03-24T04:59:21;99894.09;;;8.56;100.00
58622;BME280;44389;51.578;5.456;2023-03-24T05:01:47;99896.56;;;8.51;100.00
58622;BME280;44389;51.578;5.456;2023-03-24T05:04:20;99899.09;;;8.50;100.00
58622;BME280;44389;51.578;5.456;2023-03-24T05:06:46;99902.28;;;8.41;100.00
58622;BME280;44389;51.578;5.456;2023-03-24T05:09:14;99901.38;;;8.39;100.00
58622;BME280;44389;51.578;5.456;2023-03-24T05:11:39;99901.38;;;8.39;100.00
58622;BME280;44389;51.578;5.456;2023-03-24T05:14:05;99907.28;;;8.36;100.00
58622;BME280;44389;51.578;5.456;2023-03-24T05:16:30;99904.69;;;8.35;100.00
58622;BME280;44389;51.578;5.456;2023-03-24T05:18:55;99917.53;;;8.35;100.00
58622;BME280;44389;51.578;5.456;2023-03-24T05:21:21;99918.31;;;8.31;100.00
58622;BME280;44389;51.578;5.456;2023-03-24T05:23:46;99925.31;;;8.38;100.00
58622;BME280;44389;51.578;5.456;2023-03-24T05:26:11;99931.28;;;8.37;100.00
58622;BME280;44389;51.578;5.456;2023-03-24T05:28:37;99942.41;;;8.37;100.00
58622;BME280;44389;51.578;5.456;2023-03-24T05:31:02;99945.00;;;8.39;100.00
58622;BME280;44389;51.578;5.456;2023-03-24T05:33:27;99945.06;;;8.40;100.00
58622;BME280;44389;51.578;5.456;2023-03-24T05:35:53;99944.97;;;8.37;100.00
58622;BME280;44389;51.578;5.456;2023-03-24T05:38:18;99949.16;;;8.34;100.00
58622;BME280;44389;51.578;5.456;2023-03-24T05:40:43;99954.31;;;8.34;100.00
58622;BME280;44389;51.578;5.456;2023-03-24T05:43:09;99949.09;;;8.31;100.00
58622;BME280;44389;51.578;5.456;2023-03-24T05:45:36;99943.91;;;8.28;100.00
58622;BME280;44389;51.578;5.456;2023-03-24T05:48:02;99953.44;;;8.33;100.00
58622;BME280;44389;51.578;5.456;2023-03-24T05:50:27;99950.84;;;8.32;100.00
58622;BME280;44389;51.578;5.456;2023-03-24T05:52:52;99958.66;;;8.36;100.00
58622;BME280;44389;51.578;5.456;2023-03-24T05:55:18;99961.16;;;8.33;100.00
58622;BME280;44389;51.578;5.456;2023-03-24T05:57:44;99961.28;;;8.38;100.00
58622;BME280;44389;51.578;5.456;2023-03-24T06:00:10;99967.13;;;8.34;100.00
58622;BME280;44389;51.578;5.456;2023-03-24T06:02:41;99967.09;;;8.32;100.00
58622;BME280;44389;51.578;5.456;2023-03-24T06:05:07;99965.34;;;8.30;100.00
58622;BME280;44389;51.578;5.456;2023-03-24T06:07:33;99962.78;;;8.30;100.00
58622;BME280;44389;51.578;5.456;2023-03-24T06:09:59;99969.78;;;8.35;100.00
58622;BME280;44389;51.578;5.456;2023-03-24T06:12:28;99955.19;;;8.34;100.00
58622;BME280;44389;51.578;5.456;2023-03-24T06:14:55;99968.09;;;8.37;100.00
58622;BME280;44389;51.578;5.456;2023-03-24T06:17:20;99967.31;;;8.41;100.00
58622;BME280;44389;51.578;5.456;2023-03-24T06:19:46;99972.53;;;8.43;100.00
58622;BME280;44389;51.578;5.456;2023-03-24T06:22:17;99983.69;;;8.45;100.00
58622;BME280;44389;51.578;5.456;2023-03-24T06:24:44;99991.44;;;8.47;100.00
58622;BME280;44389;51.578;5.456;2023-03-24T06:27:11;99999.25;;;8.50;100.00
58622;BME280;44389;51.578;5.456;2023-03-24T06:29:39;99995.94;;;8.55;100.00
58622;BME280;44389;51.578;5.456;2023-03-24T06:32:07;99994.34;;;8.61;100.00
58622;BME280;44389;51.578;5.456;2023-03-24T06:34:33;99984.19;;;8.64;100.00
58622;BME280;44389;51.578;5.456;2023-03-24T06:36:58;99991.03;;;8.65;100.00
58622;BME280;44389;51.578;5.456;2023-03-24T06:39:23;99995.34;;;8.66;100.00
58622;BME280;44389;51.578;5.456;2023-03-24T06:41:49;99994.50;;;8.67;100.00
58622;BME280;44389;51.578;5.456;2023-03-24T06:44:14;99997.91;;;8.66;100.00
58622;BME280;44389;51.578;5.456;2023-03-24T06:46:40;99996.25;;;8.68;100.00
58622;BME280;44389;51.578;5.456;2023-03-24T06:49:06;100006.59;;;8.71;100.00
58622;BME280;44389;51.578;5.456;2023-03-24T06:51:31;100001.47;;;8.72;100.00
58622;BME280;44389;51.578;5.456;2023-03-24T06:53:57;100008.38;;;8.75;100.00
58622;BME280;44389;51.578;5.456;2023-03-24T06:56:22;100014.44;;;8.77;100.00
58622;BME280;44389;51.578;5.456;2023-03-24T06:58:47;100009.44;;;8.83;100.00
58622;BME280;44389;51.578;5.456;2023-03-24T07:01:13;100004.41;;;8.88;100.00
58622;BME280;44389;51.578;5.456;2023-03-24T07:03:39;100023.38;;;8.93;100.00
58622;BME280;44389;51.578;5.456;2023-03-24T07:06:06;100017.50;;;8.99;100.00
58622;BME280;44389;51.578;5.456;2023-03-24T07:08:31;100006.47;;;9.03;100.00
58622;BME280;44389;51.578;5.456;2023-03-24T07:10:58;100017.72;;;9.08;100.00
58622;BME280;44389;51.578;5.456;2023-03-24T07:13:24;100016.94;;;9.12;100.00
58622;BME280;44389;51.578;5.456;2023-03-24T07:15:49;100026.53;;;9.19;100.00
58622;BME280;44389;51.578;5.456;2023-03-24T07:18:15;100026.66;;;9.26;100.00
58622;BME280;44389;51.578;5.456;2023-03-24T07:20:40;100029.34;;;9.30;100.00
58622;BME280;44389;51.578;5.456;2023-03-24T07:23:06;100036.28;;;9.36;100.00
58622;BME280;44389;51.578;5.456;2023-03-24T07:25:31;100042.50;;;9.44;100.00
58622;BME280;44389;51.578;5.456;2023-03-24T07:27:56;100041.75;;;9.50;100.00
58622;BME280;44389;51.578;5.456;2023-03-24T07:30:23;100038.44;;;9.55;100.00
58622;BME280;44389;51.578;5.456;2023-03-24T07:32:48;100049.69;;;9.61;100.00
58622;BME280;44389;51.578;5.456;2023-03-24T07:35:15;100051.53;;;9.68;100.00
58622;BME280;44389;51.578;5.456;2023-03-24T07:37:41;100052.59;;;9.76;100.00
58622;BME280;44389;51.578;5.456;2023-03-24T07:40:07;100056.16;;;9.83;99.75
58622;BME280;44389;51.578;5.456;2023-03-24T07:42:35;100057.13;;;9.89;99.19
58622;BME280;44389;51.578;5.456;2023-03-24T07:45:01;100046.03;;;9.94;98.81
58622;BME280;44389;51.578;5.456;2023-03-24T07:47:26;100059.88;;;9.99;98.24
58622;BME280;44389;51.578;5.456;2023-03-24T07:49:51;100067.72;;;10.05;98.72
58622;BME280;44389;51.578;5.456;2023-03-24T07:52:17;100067.75;;;10.08;98.12
58622;BME280;44389;51.578;5.456;2023-03-24T07:54:42;100066.25;;;10.19;97.88
58622;BME280;44389;51.578;5.456;2023-03-24T07:57:07;100072.34;;;10.23;97.48
58622;BME280;44389;51.578;5.456;2023-03-24T07:59:33;100065.75;;;10.36;97.62
58622;BME280;44389;51.578;5.456;2023-03-24T08:01:58;100068.59;;;10.51;96.66
58622;BME280;44389;51.578;5.456;2023-03-24T08:04:24;100080.00;;;10.66;95.36
58622;BME280;44389;51.578;5.456;2023-03-24T08:06:51;100082.81;;;10.81;94.24
58622;BME280;44389;51.578;5.456;2023-03-24T08:09:17;100084.50;;;10.79;93.71
58622;BME280;44389;51.578;5.456;2023-03-24T08:11:43;100079.97;;;10.64;93.32
58622;BME280;44389;51.578;5.456;2023-03-24T08:14:08;100088.44;;;10.57;94.95
58622;BME280;44389;51.578;5.456;2023-03-24T08:16:34;100078.09;;;10.54;95.05
58622;BME280;44389;51.578;5.456;2023-03-24T08:18:59;100093.53;;;10.54;94.92
58622;BME280;44389;51.578;5.456;2023-03-24T08:21:25;100102.25;;;10.62;95.46
58622;BME280;44389;51.578;5.456;2023-03-24T08:23:50;100097.88;;;10.57;93.88
58622;BME280;44389;51.578;5.456;2023-03-24T08:26:16;100098.50;;;10.43;93.89
58622;BME280;44389;51.578;5.456;2023-03-24T08:28:41;100085.78;;;10.52;95.68
58622;BME280;44389;51.578;5.456;2023-03-24T08:31:07;100100.69;;;10.70;94.62
58622;BME280;44389;51.578;5.456;2023-03-24T08:33:33;100101.94;;;10.96;92.80
58622;BME280;44389;51.578;5.456;2023-03-24T08:35:58;100104.66;;;11.03;91.41
58622;BME280;44389;51.578;5.456;2023-03-24T08:38:26;100114.94;;;11.02;90.43
58622;BME280;44389;51.578;5.456;2023-03-24T08:40:59;100119.19;;;11.00;89.36
58622;BME280;44389;51.578;5.456;2023-03-24T08:43:29;100124.31;;;10.95;89.11
58622;BME280;44389;51.578;5.456;2023-03-24T08:45:55;100114.81;;;10.93;89.62
58622;BME280;44389;51.578;5.456;2023-03-24T08:48:21;100122.44;;;10.86;88.27
58622;BME280;44389;51.578;5.456;2023-03-24T08:50:47;100125.03;;;10.88;87.95
58622;BME280;44389;51.578;5.456;2023-03-24T08:53:13;100137.09;;;10.89;88.53
58622;BME280;44389;51.578;5.456;2023-03-24T08:55:39;100132.75;;;10.88;88.60
58622;BME280;44389;51.578;5.456;2023-03-24T08:58:14;100120.59;;;10.79;88.82
58622;BME280;44389;51.578;5.456;2023-03-24T09:00:40;100129.09;;;10.74;90.42
58622;BME280;44389;51.578;5.456;2023-03-24T09:03:06;100130.84;;;10.76;87.77
58622;BME280;44389;51.578;5.456;2023-03-24T09:05:31;100128.28;;;10.78;88.91
58622;BME280;44389;51.578;5.456;2023-03-24T09:07:57;100129.22;;;10.81;88.25
58622;BME280;44389;51.578;5.456;2023-03-24T09:10:25;100134.38;;;10.81;88.68
58622;BME280;44389;51.578;5.456;2023-03-24T09:12:50;100136.16;;;10.85;89.02
58622;BME280;44389;51.578;5.456;2023-03-24T09:15:16;100127.59;;;10.88;87.77
58622;BME280;44389;51.578;5.456;2023-03-24T09:17:42;100139.13;;;11.09;88.17
58622;BME280;44389;51.578;5.456;2023-03-24T09:20:10;100153.88;;;11.17;87.55
58622;BME280;44389;51.578;5.456;2023-03-24T09:22:37;100145.47;;;11.29;87.16
58622;BME280;44389;51.578;5.456;2023-03-24T09:25:04;100144.84;;;11.46;87.73
58622;BME280;44389;51.578;5.456;2023-03-24T09:27:29;100140.53;;;11.46;86.36
58622;BME280;44389;51.578;5.456;2023-03-24T09:29:55;100148.88;;;11.28;85.08
58622;BME280;44389;51.578;5.456;2023-03-24T09:32:20;100150.47;;;11.18;86.93
58622;BME280;44389;51.578;5.456;2023-03-24T09:34:46;100136.47;;;11.04;86.87
58622;BME280;44389;51.578;5.456;2023-03-24T09:37:13;100163.38;;;10.68;91.21
58622;BME280;44389;51.578;5.456;2023-03-24T09:39:39;100176.19;;;10.66;91.56
58622;BME280;44389;51.578;5.456;2023-03-24T09:42:05;100162.81;;;10.38;94.09
58622;BME280;44389;51.578;5.456;2023-03-24T09:44:39;100163.47;;;10.30;94.84
58622;BME280;44389;51.578;5.456;2023-03-24T09:49:39;100169.59;;;10.81;95.77
58622;BME280;44389;51.578;5.456;2023-03-24T09:52:06;100163.22;;;11.11;96.53
58622;BME280;44389;51.578;5.456;2023-03-24T09:54:56;100165.81;;;12.32;89.51
58622;BME280;44389;51.578;5.456;2023-03-24T09:57:37;100171.22;;;12.55;85.29
58622;BME280;44389;51.578;5.456;2023-03-24T10:00:24;100166.75;;;12.43;85.82
58622;BME280;44389;51.578;5.456;2023-03-24T10:02:52;100179.22;;;12.03;83.75
58622;BME280;44389;51.578;5.456;2023-03-24T10:05:26;100179.38;;;12.14;84.33
58622;BME280;44389;51.578;5.456;2023-03-24T10:07:58;100168.31;;;12.26;81.26
58622;BME280;44389;51.578;5.456;2023-03-24T10:10:33;100180.13;;;12.07;82.68
58622;BME280;44389;51.578;5.456;2023-03-24T10:13:07;100176.72;;;12.11;84.63
58622;BME280;44389;51.578;5.456;2023-03-24T10:15:51;100177.69;;;12.17;84.34
58622;BME280;44389;51.578;5.456;2023-03-24T10:18:39;100182.88;;;12.21;84.25
58622;BME280;44389;51.578;5.456;2023-03-24T10:21:19;100177.91;;;12.38;83.54
58622;BME280;44389;51.578;5.456;2023-03-24T10:24:18;100188.41;;;12.50;83.47
58622;BME280;44389;51.578;5.456;2023-03-24T10:27:26;100173.56;;;12.35;82.68
58622;BME280;44389;51.578;5.456;2023-03-24T10:29:56;100174.41;;;12.31;81.10
58622;BME280;44389;51.578;5.456;2023-03-24T10:32:26;100180.69;;;11.85;80.65
58622;BME280;44389;51.578;5.456;2023-03-24T10:34:56;100178.69;;;11.66;83.26
58622;BME280;44389;51.578;5.456;2023-03-24T10:37:24;100182.66;;;11.44;83.73
58622;BME280;44389;51.578;5.456;2023-03-24T10:39:51;100181.84;;;11.46;84.38
58622;BME280;44389;51.578;5.456;2023-03-24T10:42:18;100174.09;;;12.06;82.61
58622;BME280;44389;51.578;5.456;2023-03-24T10:44:47;100161.41;;;13.15;80.49
58622;BME280;44389;51.578;5.456;2023-03-24T10:47:16;100170.03;;;14.98;74.25
58622;BME280;44389;51.578;5.456;2023-03-24T10:50:12;100163.97;;;14.68;72.99
58622;BME280;44389;51.578;5.456;2023-03-24T10:52:41;100168.81;;;13.88;68.92
58622;BME280;44389;51.578;5.456;2023-03-24T10:55:16;100161.81;;;13.63;70.73
58622;BME280;44389;51.578;5.456;2023-03-24T10:57:44;100140.94;;;13.40;68.63
58622;BME280;44389;51.578;5.456;2023-03-24T11:00:33;100170.28;;;13.39;70.83
58622;BME280;44389;51.578;5.456;2023-03-24T11:03:09;100160.66;;;13.30;70.84
58622;BME280;44389;51.578;5.456;2023-03-24T11:05:38;100161.72;;;13.49;70.90
58622;BME280;44389;51.578;5.456;2023-03-24T11:10:45;100161.03;;;13.83;70.91
58622;BME280;44389;51.578;5.456;2023-03-24T11:13:31;100159.41;;;14.08;70.30
58622;BME280;44389;51.578;5.456;2023-03-24T11:16:13;100163.75;;;14.11;67.69
58622;BME280;44389;51.578;5.456;2023-03-24T11:19:01;100163.66;;;13.91;69.10
58622;BME280;44389;51.578;5.456;2023-03-24T11:21:31;100166.81;;;13.40;69.60
58622;BME280;44389;51.578;5.456;2023-03-24T11:24:01;100168.25;;;13.07;70.73
58622;BME280;44389;51.578;5.456;2023-03-24T11:26:33;100179.25;;;12.83;71.92
58622;BME280;44389;51.578;5.456;2023-03-24T11:29:03;100173.06;;;12.67;72.29
58622;BME280;44389;51.578;5.456;2023-03-24T11:31:32;100165.34;;;12.72;73.21
58622;BME280;44389;51.578;5.456;2023-03-24T11:39:28;100159.78;;;13.27;70.45
58622;BME280;44389;51.578;5.456;2023-03-24T11:44:30;100160.28;;;12.81;72.50
58622;BME280;44389;51.578;5.456;2023-03-24T11:46:57;100159.97;;;12.50;74.15
58622;BME280;44389;51.578;5.456;2023-03-24T11:49:30;100170.81;;;12.18;77.06
58622;BME280;44389;51.578;5.456;2023-03-24T11:51:56;100179.03;;;11.89;81.70
58622;BME280;44389;51.578;5.456;2023-03-24T11:54:32;100186.50;;;11.70;84.34
58622;BME280;44389;51.578;5.456;2023-03-24T11:57:03;100189.56;;;11.45;85.41
58622;BME280;44389;51.578;5.456;2023-03-24T12:02:10;100211.88;;;10.91;89.17
58622;BME280;44389;51.578;5.456;2023-03-24T12:07:49;100222.22;;;10.46;94.54
58622;BME280;44389;51.578;5.456;2023-03-24T12:10:58;100217.72;;;10.36;95.95
58622;BME280;44389;51.578;5.456;2023-03-24T12:13:41;100218.16;;;10.18;97.70
58622;BME280;44389;51.578;5.456;2023-03-24T12:19:36;100224.75;;;10.05;98.13
58622;BME280;44389;51.578;5.456;2023-03-24T12:30:28;100206.59;;;9.99;96.87
58622;BME280;44389;51.578;5.456;2023-03-24T12:35:59;100209.56;;;9.76;97.89
58622;BME280;44389;51.578;5.456;2023-03-24T12:38:58;100206.91;;;9.73;97.11
58622;BME280;44389;51.578;5.456;2023-03-24T12:44:22;100203.00;;;10.30;94.12
58622;BME280;44389;51.578;5.456;2023-03-24T12:55:07;100189.66;;;12.91;82.13
58622;BME280;44389;51.578;5.456;2023-03-24T12:57:56;100175.69;;;13.76;78.18
58622;BME280;44389;51.578;5.456;2023-03-24T13:00:32;100171.47;;;13.98;73.35
58622;BME280;44389;51.578;5.456;2023-03-24T13:03:17;100178.44;;;14.15;74.08
58622;BME280;44389;51.578;5.456;2023-03-24T13:05:49;100177.66;;;14.36;72.84
58622;BME280;44389;51.578;5.456;2023-03-24T13:08:21;100173.38;;;14.41;71.25
58622;BME280;44389;51.578;5.456;2023-03-24T13:10:57;100165.69;;;14.75;69.04
58622;BME280;44389;51.578;5.456;2023-03-24T13:13:36;100149.97;;;14.18;71.43
58622;BME280;44389;51.578;5.456;2023-03-24T13:16:08;100170.25;;;13.38;73.51
58622;BME280;44389;51.578;5.456;2023-03-24T13:18:43;100160.28;;;12.85;75.48
58622;BME280;44389;51.578;5.456;2023-03-24T13:21:15;100166.09;;;12.60;78.55
58622;BME280;44389;51.578;5.456;2023-03-24T13:23:53;100168.44;;;12.38;82.79
58622;BME280;44389;51.578;5.456;2023-03-24T13:29:59;100166.88;;;11.82;87.18
58622;BME280;44389;51.578;5.456;2023-03-24T13:32:48;100164.88;;;11.61;90.49
58622;BME280;44389;51.578;5.456;2023-03-24T13:35:31;100184.94;;;11.24;90.56
58622;BME280;44389;51.578;5.456;2023-03-24T13:38:19;100160.53;;;11.03;95.16
58622;BME280;44389;51.578;5.456;2023-03-24T13:40:51;100179.03;;;11.91;99.39
58622;BME280;44389;51.578;5.456;2023-03-24T13:43:20;100166.50;;;12.18;91.28
58622;BME280;44389;51.578;5.456;2023-03-24T13:46:06;100165.81;;;12.35;90.19
58622;BME280;44389;51.578;5.456;2023-03-24T13:48:42;100166.44;;;12.14;87.60
58622;BME280;44389;51.578;5.456;2023-03-24T13:51:28;100158.59;;;12.05;88.60
58622;BME280;44389;51.578;5.456;2023-03-24T13:54:03;100152.38;;;11.92;88.09
58622;BME280;44389;51.578;5.456;2023-03-24T13:56:33;100140.31;;;11.91;87.86
58622;BME280;44389;51.578;5.456;2023-03-24T13:59:18;100137.03;;;12.01;89.11
58622;BME280;44389;51.578;5.456;2023-03-24T14:02:07;100129.38;;;12.12;88.54
58622;BME280;44389;51.578;5.456;2023-03-24T14:07:30;100120.50;;;11.93;87.79
58622;BME280;44389;51.578;5.456;2023-03-24T14:10:25;100105.84;;;11.89;88.45
58622;BME280;44389;51.578;5.456;2023-03-24T14:13:02;100106.03;;;12.01;87.93
58622;BME280;44389;51.578;5.456;2023-03-24T14:15:33;100114.41;;;11.86;85.06
58622;BME280;44389;51.578;5.456;2023-03-24T14:23:43;100149.81;;;11.33;89.13
58622;BME280;44389;51.578;5.456;2023-03-24T14:26:27;100140.41;;;11.35;95.02
58622;BME280;44389;51.578;5.456;2023-03-24T14:28:55;100147.44;;;11.46;98.26
58622;BME280;44389;51.578;5.456;2023-03-24T14:31:26;100137.00;;;11.40;95.32
58622;BME280;44389;51.578;5.456;2023-03-24T14:36:27;100150.03;;;11.49;96.13
58622;BME280;44389;51.578;5.456;2023-03-24T14:38:55;100147.72;;;11.66;95.64
58622;BME280;44389;51.578;5.456;2023-03-24T14:41:29;100152.81;;;11.63;95.12
58622;BME280;44389;51.578;5.456;2023-03-24T14:44:03;100157.91;;;11.57;95.70
58622;BME280;44389;51.578;5.456;2023-03-24T14:46:41;100152.56;;;11.44;95.34
58622;BME280;44389;51.578;5.456;2023-03-24T14:51:43;100142.16;;;11.38;99.53
58622;BME280;44389;51.578;5.456;2023-03-24T14:54:16;100144.72;;;11.36;98.68